Lake View, Iowa
Current Conditions -  °F | °C
As of 8:55 PM on Tuesday 25 Nov 2014 (Local Time) from KSLB Reporting Station
Overcast Overcast  
Wind Chill: 19°   Ceiling: 3700
Heat Index: 30°   Visibility: 10mi
Dew Point: 19°   Wind: 16mph
Humidity: 64%   Direction: 150°SSE
Pressure: 29.9"   Gusts: NA
Location:  42.31°N, 95.05°W
Report Text: KSLB 260255Z AUTO 15014KT 10SM BKN037 BKN043 OVC050 M01/M07 A2990 RMK AO2
Loading
Personal Weather Stations






























Interactive Weather Map New forecast layout! Learn more

10-Day Weather Forecast

Advertisements
Track Severe Weather on mobile